AAL2105 KMSP-KPHX
Flight info
| Callsign | AAL2105 |
|---|---|
| Flight time | 2h 56m |
| Altitude | 38000 |
| Route | SCHEP1 RXANN TEYOU LLUKY PUB ALS J102 GUP EAGUL6 |
| Aircraft | A319/M-SDE3FGHIRWY/LB1 |
Departure
| Time | 2026-05-06 20:20 |
|---|---|
| Airport | Minneapolis–Saint Paul International Airport / Wold–Chamberlain Field (KMSP) |
Arrival
| Time | 2026-05-06 23:17 |
|---|---|
| Airport | Phoenix Sky Harbor International Airport (KPHX) |
| Time | Latitude | Longitude | Altitude | Speed | Heading |
|---|---|---|---|---|---|
| 2026-05-06 19:48 | 44.88517 | -93.21356 | 839 ft | 0 kts | 57° |
| 2026-05-06 20:00 | 44.88517 | -93.21357 | 839 ft | 0 kts | 57° |
| 2026-05-06 20:04 | 44.88511 | -93.21370 | 830 ft | 4 kts | 57° |
| 2026-05-06 20:04 | 44.88496 | -93.21402 | 831 ft | 4 kts | 53° |
| 2026-05-06 20:04 | 44.88478 | -93.21431 | 828 ft | 4 kts | 38° |
| 2026-05-06 20:05 | 44.88458 | -93.21444 | 832 ft | 4 kts | 323° |
| 2026-05-06 20:05 | 44.88453 | -93.21439 | 834 ft | 0 kts | 295° |
| 2026-05-06 20:07 | 44.88458 | -93.21453 | 831 ft | 2 kts | 296° |
| 2026-05-06 20:07 | 44.88464 | -93.21467 | 841 ft | 1 kts | 305° |
| 2026-05-06 20:08 | 44.88471 | -93.21479 | 835 ft | 2 kts | 308° |
| 2026-05-06 20:08 | 44.88514 | -93.21532 | 837 ft | 9 kts | 322° |
| 2026-05-06 20:08 | 44.88537 | -93.21603 | 843 ft | 8 kts | 270° |
| 2026-05-06 20:08 | 44.88533 | -93.21660 | 845 ft | 0 kts | 272° |
| 2026-05-06 20:10 | 44.88533 | -93.21662 | 845 ft | 1 kts | 275° |
| 2026-05-06 20:10 | 44.88542 | -93.21749 | 845 ft | 14 kts | 252° |
| 2026-05-06 20:10 | 44.88471 | -93.21864 | 836 ft | 17 kts | 225° |
| 2026-05-06 20:11 | 44.88413 | -93.21949 | 840 ft | 0 kts | 226° |
| 2026-05-06 20:11 | 44.88404 | -93.21962 | 839 ft | 4 kts | 226° |
| 2026-05-06 20:11 | 44.88372 | -93.22008 | 835 ft | 8 kts | 224° |
| 2026-05-06 20:11 | 44.88308 | -93.22014 | 838 ft | 11 kts | 147° |
| 2026-05-06 20:12 | 44.88263 | -93.21919 | 834 ft | 12 kts | 118° |
| 2026-05-06 20:12 | 44.88215 | -93.21805 | 836 ft | 15 kts | 121° |
| 2026-05-06 20:12 | 44.88154 | -93.21659 | 834 ft | 18 kts | 120° |
| 2026-05-06 20:12 | 44.88083 | -93.21501 | 830 ft | 18 kts | 122° |
| 2026-05-06 20:13 | 44.88009 | -93.21340 | 833 ft | 20 kts | 123° |
| 2026-05-06 20:13 | 44.87934 | -93.21167 | 834 ft | 22 kts | 121° |
| 2026-05-06 20:13 | 44.87854 | -93.20979 | 834 ft | 23 kts | 121° |
| 2026-05-06 20:13 | 44.87769 | -93.20777 | 832 ft | 25 kts | 122° |
| 2026-05-06 20:14 | 44.87672 | -93.20555 | 825 ft | 28 kts | 121° |
| 2026-05-06 20:14 | 44.87571 | -93.20318 | 827 ft | 25 kts | 121° |
| 2026-05-06 20:14 | 44.87488 | -93.20130 | 824 ft | 14 kts | 121° |
| 2026-05-06 20:14 | 44.87448 | -93.20076 | 827 ft | 0 kts | 178° |
| 2026-05-06 20:18 | 44.87422 | -93.20084 | 827 ft | 14 kts | 198° |
| 2026-05-06 20:18 | 44.87381 | -93.20194 | 825 ft | 14 kts | 283° |
| 2026-05-06 20:18 | 44.87397 | -93.20232 | 823 ft | 0 kts | 304° |
| 2026-05-06 20:19 | 44.87407 | -93.20254 | 823 ft | 8 kts | 304° |
| 2026-05-06 20:20 | 44.87582 | -93.20655 | 826 ft | 92 kts | 301° |
| 2026-05-06 20:20 | 44.88039 | -93.21726 | 838 ft | 161 kts | 301° |
| 2026-05-06 20:20 | 44.88646 | -93.23130 | 1488 ft | 169 kts | 301° |
| 2026-05-06 20:20 | 44.89249 | -93.24524 | 2552 ft | 166 kts | 291° |
| 2026-05-06 20:21 | 44.89271 | -93.26211 | 3032 ft | 190 kts | 255° |
| 2026-05-06 20:21 | 44.88595 | -93.27980 | 3433 ft | 218 kts | 241° |
| 2026-05-06 20:21 | 44.87719 | -93.29872 | 4025 ft | 240 kts | 240° |
| 2026-05-06 20:21 | 44.86793 | -93.31852 | 4744 ft | 251 kts | 240° |
| 2026-05-06 20:22 | 44.85806 | -93.33902 | 4958 ft | 253 kts | 236° |
| 2026-05-06 20:22 | 44.84704 | -93.35841 | 5103 ft | 256 kts | 235° |
| 2026-05-06 20:22 | 44.83592 | -93.37809 | 6163 ft | 257 kts | 234° |
| 2026-05-06 20:22 | 44.82478 | -93.39784 | 7173 ft | 260 kts | 235° |
| 2026-05-06 20:23 | 44.81343 | -93.41795 | 8112 ft | 264 kts | 235° |
| 2026-05-06 20:23 | 44.80186 | -93.43843 | 9051 ft | 269 kts | 235° |
| 2026-05-06 20:23 | 44.79012 | -93.45922 | 9991 ft | 274 kts | 236° |
| 2026-05-06 20:23 | 44.77817 | -93.48040 | 10768 ft | 283 kts | 236° |
| 2026-05-06 20:24 | 44.76546 | -93.50297 | 11104 ft | 306 kts | 236° |
| 2026-05-06 20:24 | 44.75179 | -93.52723 | 11531 ft | 324 kts | 235° |
| 2026-05-06 20:24 | 44.73758 | -93.55227 | 12271 ft | 330 kts | 235° |
| 2026-05-06 20:24 | 44.72314 | -93.57755 | 13091 ft | 334 kts | 235° |
| 2026-05-06 20:25 | 44.70850 | -93.60318 | 13901 ft | 338 kts | 236° |
| 2026-05-06 20:25 | 44.69379 | -93.62927 | 14592 ft | 342 kts | 237° |
| 2026-05-06 20:25 | 44.67951 | -93.65610 | 15292 ft | 345 kts | 238° |
| 2026-05-06 20:25 | 44.66532 | -93.68363 | 15989 ft | 349 kts | 239° |
| 2026-05-06 20:26 | 44.65111 | -93.71149 | 16666 ft | 353 kts | 239° |
| 2026-05-06 20:26 | 44.63688 | -93.73936 | 17353 ft | 357 kts | 239° |
| 2026-05-06 20:26 | 44.62225 | -93.76781 | 18042 ft | 362 kts | 239° |
| 2026-05-06 20:26 | 44.60736 | -93.79651 | 18658 ft | 366 kts | 239° |
| 2026-05-06 20:27 | 44.59221 | -93.82552 | 19262 ft | 370 kts | 239° |
| 2026-05-06 20:27 | 44.57695 | -93.85467 | 19881 ft | 373 kts | 239° |
| 2026-05-06 20:27 | 44.56155 | -93.88413 | 20495 ft | 375 kts | 239° |
| 2026-05-06 20:27 | 44.54606 | -93.91378 | 21112 ft | 378 kts | 239° |
| 2026-05-06 20:28 | 44.53048 | -93.94362 | 21720 ft | 381 kts | 239° |
| 2026-05-06 20:28 | 44.51471 | -93.97374 | 22315 ft | 384 kts | 239° |
| 2026-05-06 20:28 | 44.49882 | -94.00404 | 22888 ft | 387 kts | 239° |
| 2026-05-06 20:28 | 44.48280 | -94.03453 | 23469 ft | 390 kts | 239° |
| 2026-05-06 20:29 | 44.46668 | -94.06519 | 23969 ft | 393 kts | 239° |
| 2026-05-06 20:29 | 44.45042 | -94.09612 | 24432 ft | 395 kts | 239° |
| 2026-05-06 20:29 | 44.43408 | -94.12714 | 24888 ft | 397 kts | 239° |
| 2026-05-06 20:29 | 44.41762 | -94.15827 | 25351 ft | 399 kts | 238° |
| 2026-05-06 20:30 | 44.40107 | -94.18950 | 25789 ft | 401 kts | 238° |
| 2026-05-06 20:30 | 44.36772 | -94.25241 | 26662 ft | 405 kts | 238° |
| 2026-05-06 20:30 | 44.35088 | -94.28423 | 26820 ft | 414 kts | 238° |
| 2026-05-06 20:31 | 44.33350 | -94.31705 | 26953 ft | 422 kts | 238° |
| 2026-05-06 20:31 | 44.31589 | -94.35025 | 27079 ft | 429 kts | 238° |
| 2026-05-06 20:31 | 44.29793 | -94.38401 | 27224 ft | 436 kts | 238° |
| 2026-05-06 20:31 | 44.27976 | -94.41809 | 27513 ft | 438 kts | 238° |
| 2026-05-06 20:32 | 44.26157 | -94.45208 | 27937 ft | 437 kts | 238° |
| 2026-05-06 20:32 | 44.24336 | -94.48607 | 28421 ft | 436 kts | 238° |
| 2026-05-06 20:32 | 44.22527 | -94.51986 | 28903 ft | 434 kts | 238° |
| 2026-05-06 20:32 | 44.20729 | -94.55350 | 29413 ft | 432 kts | 238° |
| 2026-05-06 20:33 | 44.18932 | -94.58709 | 29926 ft | 430 kts | 238° |
| 2026-05-06 20:33 | 44.17148 | -94.62039 | 30400 ft | 429 kts | 238° |
| 2026-05-06 20:33 | 44.15392 | -94.65315 | 30800 ft | 427 kts | 237° |
| 2026-05-06 20:33 | 44.13612 | -94.68631 | 31191 ft | 426 kts | 237° |
| 2026-05-06 20:34 | 44.11838 | -94.71936 | 31599 ft | 425 kts | 237° |
| 2026-05-06 20:34 | 44.10066 | -94.75233 | 32021 ft | 425 kts | 237° |
| 2026-05-06 20:34 | 44.08294 | -94.78521 | 32454 ft | 424 kts | 237° |
| 2026-05-06 20:34 | 44.06526 | -94.81797 | 32880 ft | 423 kts | 237° |
| 2026-05-06 20:35 | 44.04761 | -94.85060 | 33320 ft | 422 kts | 237° |
| 2026-05-06 20:35 | 44.02996 | -94.88321 | 33762 ft | 422 kts | 237° |
| 2026-05-06 20:35 | 44.01228 | -94.91579 | 34197 ft | 421 kts | 237° |
| 2026-05-06 20:35 | 43.99471 | -94.94818 | 34570 ft | 421 kts | 237° |
| 2026-05-06 20:36 | 43.97728 | -94.98083 | 34938 ft | 420 kts | 237° |
| 2026-05-06 20:36 | 43.96019 | -95.01360 | 35303 ft | 419 kts | 238° |
| 2026-05-06 20:36 | 43.94345 | -95.04617 | 35655 ft | 419 kts | 238° |
| 2026-05-06 20:36 | 43.92657 | -95.07911 | 36000 ft | 419 kts | 238° |
| 2026-05-06 20:37 | 43.90963 | -95.11201 | 36349 ft | 419 kts | 238° |
| 2026-05-06 20:37 | 43.89264 | -95.14476 | 36692 ft | 418 kts | 237° |
| 2026-05-06 20:37 | 43.87561 | -95.17741 | 37024 ft | 418 kts | 237° |
| 2026-05-06 20:37 | 43.85856 | -95.21000 | 37352 ft | 418 kts | 237° |
| 2026-05-06 20:38 | 43.84147 | -95.24259 | 37670 ft | 418 kts | 237° |
| 2026-05-06 20:38 | 43.82436 | -95.27511 | 37981 ft | 418 kts | 237° |
| 2026-05-06 20:38 | 43.80720 | -95.30771 | 38096 ft | 419 kts | 237° |
| 2026-05-06 20:39 | 43.77292 | -95.37287 | 38108 ft | 418 kts | 237° |
| 2026-05-06 20:39 | 43.73876 | -95.43785 | 38105 ft | 418 kts | 237° |
| 2026-05-06 20:40 | 43.70451 | -95.50276 | 38099 ft | 418 kts | 237° |
| 2026-05-06 20:40 | 43.67603 | -95.55660 | 38096 ft | 417 kts | 237° |
| 2026-05-06 20:41 | 43.64176 | -95.62129 | 38098 ft | 417 kts | 237° |
| 2026-05-06 20:41 | 43.60189 | -95.69641 | 38102 ft | 417 kts | 237° |
| 2026-05-06 20:42 | 43.57308 | -95.75051 | 38109 ft | 417 kts | 237° |
| 2026-05-06 20:42 | 43.53861 | -95.81492 | 38118 ft | 418 kts | 237° |
| 2026-05-06 20:43 | 43.50413 | -95.87930 | 38125 ft | 418 kts | 237° |
| 2026-05-06 20:43 | 43.46990 | -95.94330 | 38118 ft | 418 kts | 237° |
| 2026-05-06 20:44 | 43.43540 | -96.00763 | 38114 ft | 417 kts | 237° |
| 2026-05-06 20:44 | 43.40083 | -96.07163 | 38111 ft | 417 kts | 237° |
| 2026-05-06 20:45 | 43.36625 | -96.13564 | 38117 ft | 417 kts | 237° |
| 2026-05-06 20:45 | 43.33174 | -96.19962 | 38122 ft | 416 kts | 237° |
| 2026-05-06 20:46 | 43.29726 | -96.26365 | 38122 ft | 415 kts | 240° |
| 2026-05-06 20:46 | 43.27198 | -96.33415 | 38126 ft | 412 kts | 248° |
| 2026-05-06 20:47 | 43.24867 | -96.40587 | 38126 ft | 412 kts | 248° |
| 2026-05-06 20:47 | 43.22519 | -96.47749 | 38122 ft | 412 kts | 248° |
| 2026-05-06 20:48 | 43.20160 | -96.54914 | 38120 ft | 412 kts | 248° |
| 2026-05-06 20:48 | 43.17804 | -96.62079 | 38107 ft | 413 kts | 248° |
| 2026-05-06 20:49 | 43.15434 | -96.69266 | 38098 ft | 415 kts | 248° |
| 2026-05-06 20:49 | 43.13052 | -96.76466 | 38106 ft | 416 kts | 248° |
| 2026-05-06 20:50 | 43.10677 | -96.83644 | 38112 ft | 417 kts | 248° |
| 2026-05-06 20:50 | 43.08278 | -96.90865 | 38112 ft | 417 kts | 248° |
| 2026-05-06 20:51 | 43.05866 | -96.98083 | 38122 ft | 417 kts | 248° |
| 2026-05-06 20:51 | 43.03452 | -97.05310 | 38125 ft | 418 kts | 248° |
| 2026-05-06 20:52 | 43.01034 | -97.12530 | 38127 ft | 418 kts | 248° |
| 2026-05-06 20:52 | 42.98610 | -97.19744 | 38127 ft | 418 kts | 248° |
| 2026-05-06 20:53 | 42.96185 | -97.26953 | 38120 ft | 418 kts | 248° |
| 2026-05-06 20:53 | 42.93751 | -97.34165 | 38119 ft | 418 kts | 248° |
| 2026-05-06 20:54 | 42.91310 | -97.41371 | 38123 ft | 418 kts | 248° |
| 2026-05-06 20:54 | 42.88878 | -97.48526 | 38123 ft | 419 kts | 247° |
| 2026-05-06 20:55 | 42.86418 | -97.55725 | 38131 ft | 419 kts | 247° |
| 2026-05-06 20:55 | 42.83960 | -97.62923 | 38139 ft | 419 kts | 247° |
| 2026-05-06 20:56 | 42.81503 | -97.70112 | 38141 ft | 419 kts | 247° |
| 2026-05-06 20:56 | 42.79036 | -97.77297 | 38141 ft | 419 kts | 247° |
| 2026-05-06 20:57 | 42.76561 | -97.84478 | 38138 ft | 419 kts | 247° |
| 2026-05-06 20:57 | 42.74088 | -97.91646 | 38138 ft | 419 kts | 247° |
| 2026-05-06 20:58 | 42.71609 | -97.98819 | 38131 ft | 419 kts | 247° |
| 2026-05-06 20:58 | 42.69125 | -98.05992 | 38128 ft | 419 kts | 247° |
| 2026-05-06 20:59 | 42.66642 | -98.13158 | 38117 ft | 419 kts | 247° |
| 2026-05-06 20:59 | 42.64146 | -98.20312 | 38118 ft | 419 kts | 247° |
| 2026-05-06 21:00 | 42.61657 | -98.27405 | 38113 ft | 419 kts | 247° |
| 2026-05-06 21:00 | 42.59159 | -98.34534 | 38107 ft | 419 kts | 247° |
| 2026-05-06 21:01 | 42.56659 | -98.41678 | 38106 ft | 419 kts | 247° |
| 2026-05-06 21:01 | 42.54148 | -98.48818 | 38101 ft | 419 kts | 247° |
| 2026-05-06 21:02 | 42.51624 | -98.55948 | 38101 ft | 420 kts | 246° |
| 2026-05-06 21:02 | 42.49016 | -98.63017 | 38100 ft | 422 kts | 240° |
| 2026-05-06 21:03 | 42.45271 | -98.69194 | 38095 ft | 426 kts | 232° |
| 2026-05-06 21:03 | 42.41324 | -98.75180 | 38088 ft | 426 kts | 232° |
| 2026-05-06 21:04 | 42.37371 | -98.81169 | 38095 ft | 426 kts | 232° |
| 2026-05-06 21:04 | 42.33446 | -98.87119 | 38095 ft | 427 kts | 232° |
| 2026-05-06 21:05 | 42.29499 | -98.93101 | 38099 ft | 427 kts | 232° |
| 2026-05-06 21:05 | 42.25534 | -98.99076 | 38104 ft | 427 kts | 232° |
| 2026-05-06 21:06 | 42.21562 | -99.05057 | 38114 ft | 427 kts | 232° |
| 2026-05-06 21:06 | 42.17587 | -99.11017 | 38114 ft | 427 kts | 232° |
| 2026-05-06 21:07 | 42.13608 | -99.16971 | 38110 ft | 428 kts | 232° |
| 2026-05-06 21:07 | 42.09632 | -99.22920 | 38112 ft | 428 kts | 232° |
| 2026-05-06 21:08 | 42.05652 | -99.28876 | 38108 ft | 428 kts | 231° |
| 2026-05-06 21:08 | 42.01662 | -99.34823 | 38112 ft | 428 kts | 232° |
| 2026-05-06 21:09 | 41.97669 | -99.40761 | 38111 ft | 428 kts | 231° |
| 2026-05-06 21:09 | 41.93692 | -99.46655 | 38116 ft | 428 kts | 231° |
| 2026-05-06 21:10 | 41.89685 | -99.52583 | 38115 ft | 428 kts | 231° |
| 2026-05-06 21:10 | 41.85682 | -99.58501 | 38125 ft | 428 kts | 231° |
| 2026-05-06 21:11 | 41.81668 | -99.64421 | 38124 ft | 429 kts | 231° |
| 2026-05-06 21:11 | 41.77661 | -99.70331 | 38123 ft | 429 kts | 231° |
| 2026-05-06 21:12 | 41.73648 | -99.76236 | 38121 ft | 429 kts | 231° |
| 2026-05-06 21:12 | 41.69632 | -99.82116 | 38124 ft | 429 kts | 231° |
| 2026-05-06 21:13 | 41.65600 | -99.88002 | 38115 ft | 428 kts | 231° |
| 2026-05-06 21:13 | 41.61574 | -99.93886 | 38114 ft | 429 kts | 231° |
| 2026-05-06 21:14 | 41.57545 | -99.99759 | 38115 ft | 429 kts | 231° |
| 2026-05-06 21:14 | 41.53513 | -100.05620 | 38115 ft | 429 kts | 231° |
| 2026-05-06 21:15 | 41.49472 | -100.11481 | 38112 ft | 429 kts | 231° |
| 2026-05-06 21:15 | 41.45438 | -100.17330 | 38115 ft | 429 kts | 231° |
| 2026-05-06 21:16 | 41.41421 | -100.23144 | 38120 ft | 429 kts | 231° |
| 2026-05-06 21:16 | 41.37378 | -100.28985 | 38114 ft | 429 kts | 231° |
| 2026-05-06 21:17 | 41.33321 | -100.34817 | 38117 ft | 429 kts | 231° |
| 2026-05-06 21:17 | 41.29261 | -100.40643 | 38117 ft | 430 kts | 231° |
| 2026-05-06 21:18 | 41.25195 | -100.46475 | 38121 ft | 430 kts | 231° |
| 2026-05-06 21:18 | 41.21131 | -100.52299 | 38123 ft | 430 kts | 231° |
| 2026-05-06 21:19 | 41.17061 | -100.58120 | 38128 ft | 430 kts | 231° |
| 2026-05-06 21:19 | 41.12983 | -100.63939 | 38131 ft | 430 kts | 231° |
| 2026-05-06 21:20 | 41.08903 | -100.69746 | 38138 ft | 431 kts | 231° |
| 2026-05-06 21:20 | 41.04819 | -100.75546 | 38139 ft | 431 kts | 231° |
| 2026-05-06 21:21 | 41.00734 | -100.81347 | 38138 ft | 430 kts | 231° |
| 2026-05-06 21:21 | 40.96644 | -100.87139 | 38142 ft | 430 kts | 231° |
| 2026-05-06 21:22 | 40.92577 | -100.92869 | 38137 ft | 430 kts | 230° |
| 2026-05-06 21:22 | 40.88486 | -100.98630 | 38138 ft | 430 kts | 230° |
| 2026-05-06 21:23 | 40.84393 | -101.04390 | 38136 ft | 430 kts | 230° |
| 2026-05-06 21:23 | 40.80297 | -101.10137 | 38139 ft | 430 kts | 230° |
| 2026-05-06 21:24 | 40.76199 | -101.15890 | 38142 ft | 430 kts | 230° |
| 2026-05-06 21:24 | 40.72090 | -101.21635 | 38146 ft | 430 kts | 230° |
| 2026-05-06 21:25 | 40.67986 | -101.27374 | 38145 ft | 430 kts | 230° |
| 2026-05-06 21:25 | 40.63877 | -101.33103 | 38154 ft | 430 kts | 230° |
| 2026-05-06 21:26 | 40.59758 | -101.38816 | 38160 ft | 430 kts | 230° |
| 2026-05-06 21:26 | 40.55648 | -101.44524 | 38162 ft | 430 kts | 230° |
| 2026-05-06 21:27 | 40.51532 | -101.50235 | 38162 ft | 430 kts | 230° |
| 2026-05-06 21:27 | 40.47409 | -101.55931 | 38161 ft | 430 kts | 230° |
| 2026-05-06 21:28 | 40.43290 | -101.61615 | 38157 ft | 430 kts | 230° |
| 2026-05-06 21:28 | 40.39171 | -101.67291 | 38157 ft | 430 kts | 230° |
| 2026-05-06 21:29 | 40.35083 | -101.72930 | 38157 ft | 430 kts | 230° |
| 2026-05-06 21:29 | 40.30954 | -101.78590 | 38163 ft | 430 kts | 230° |
| 2026-05-06 21:30 | 40.26816 | -101.84239 | 38166 ft | 430 kts | 230° |
| 2026-05-06 21:30 | 40.22676 | -101.89896 | 38170 ft | 430 kts | 230° |
| 2026-05-06 21:31 | 40.18539 | -101.95549 | 38172 ft | 430 kts | 230° |
| 2026-05-06 21:31 | 40.14403 | -102.01192 | 38176 ft | 430 kts | 230° |
| 2026-05-06 21:32 | 40.10255 | -102.06823 | 38169 ft | 430 kts | 230° |
| 2026-05-06 21:32 | 40.04031 | -102.15255 | 38173 ft | 430 kts | 230° |
| 2026-05-06 21:33 | 39.99922 | -102.20823 | 38168 ft | 430 kts | 230° |
| 2026-05-06 21:33 | 39.95764 | -102.26442 | 38169 ft | 430 kts | 230° |
| 2026-05-06 21:34 | 39.91604 | -102.32031 | 38171 ft | 430 kts | 230° |
| 2026-05-06 21:34 | 39.87442 | -102.37631 | 38174 ft | 430 kts | 230° |
| 2026-05-06 21:35 | 39.83961 | -102.42323 | 38193 ft | 430 kts | 230° |
| 2026-05-06 21:35 | 39.79820 | -102.47874 | 38182 ft | 430 kts | 230° |
| 2026-05-06 21:36 | 39.75647 | -102.53452 | 38184 ft | 430 kts | 230° |
| 2026-05-06 21:36 | 39.71483 | -102.59030 | 38185 ft | 430 kts | 230° |
| 2026-05-06 21:37 | 39.67321 | -102.64586 | 38174 ft | 429 kts | 230° |
| 2026-05-06 21:37 | 39.63141 | -102.70134 | 38181 ft | 430 kts | 230° |
| 2026-05-06 21:38 | 39.58971 | -102.75674 | 38179 ft | 430 kts | 230° |
| 2026-05-06 21:38 | 39.54800 | -102.81211 | 38186 ft | 430 kts | 230° |
| 2026-05-06 21:39 | 39.50610 | -102.86750 | 38184 ft | 430 kts | 230° |
| 2026-05-06 21:39 | 39.46426 | -102.92269 | 38184 ft | 429 kts | 230° |
| 2026-05-06 21:40 | 39.42248 | -102.97791 | 38176 ft | 429 kts | 230° |
| 2026-05-06 21:40 | 39.38069 | -103.03306 | 38178 ft | 430 kts | 230° |
| 2026-05-06 21:41 | 39.33874 | -103.08807 | 38182 ft | 430 kts | 230° |
| 2026-05-06 21:41 | 39.29676 | -103.14299 | 38184 ft | 429 kts | 230° |
| 2026-05-06 21:42 | 39.25521 | -103.19758 | 38188 ft | 429 kts | 230° |
| 2026-05-06 21:42 | 39.21332 | -103.25245 | 38184 ft | 429 kts | 230° |
| 2026-05-06 21:43 | 39.17137 | -103.30705 | 38186 ft | 429 kts | 230° |
| 2026-05-06 21:43 | 39.12939 | -103.36162 | 38193 ft | 428 kts | 230° |
| 2026-05-06 21:44 | 39.08749 | -103.41607 | 38186 ft | 428 kts | 230° |
| 2026-05-06 21:44 | 39.04560 | -103.47053 | 38185 ft | 428 kts | 230° |
| 2026-05-06 21:45 | 39.00366 | -103.52488 | 38187 ft | 428 kts | 230° |
| 2026-05-06 21:45 | 38.96170 | -103.57906 | 38186 ft | 427 kts | 230° |
| 2026-05-06 21:46 | 38.91977 | -103.63312 | 38187 ft | 427 kts | 230° |
| 2026-05-06 21:46 | 38.87813 | -103.68686 | 38188 ft | 426 kts | 230° |
| 2026-05-06 21:47 | 38.83624 | -103.74078 | 38195 ft | 426 kts | 230° |
| 2026-05-06 21:47 | 38.79444 | -103.79443 | 38192 ft | 425 kts | 230° |
| 2026-05-06 21:48 | 38.75255 | -103.84799 | 38193 ft | 425 kts | 230° |
| 2026-05-06 21:48 | 38.71072 | -103.90148 | 38195 ft | 425 kts | 230° |
| 2026-05-06 21:49 | 38.66917 | -103.95465 | 38194 ft | 425 kts | 230° |
| 2026-05-06 21:49 | 38.62737 | -104.00797 | 38192 ft | 425 kts | 230° |
| 2026-05-06 21:50 | 38.58545 | -104.06131 | 38199 ft | 424 kts | 230° |
| 2026-05-06 21:50 | 38.54361 | -104.11445 | 38206 ft | 424 kts | 230° |
| 2026-05-06 21:51 | 38.50176 | -104.16758 | 38215 ft | 424 kts | 230° |
| 2026-05-06 21:51 | 38.45992 | -104.22061 | 38208 ft | 425 kts | 230° |
| 2026-05-06 21:52 | 38.41782 | -104.27378 | 38196 ft | 427 kts | 230° |
| 2026-05-06 21:52 | 38.37571 | -104.32684 | 38192 ft | 428 kts | 230° |
| 2026-05-06 21:53 | 38.33314 | -104.38037 | 38195 ft | 428 kts | 230° |
| 2026-05-06 21:53 | 38.29105 | -104.43406 | 38196 ft | 426 kts | 234° |
| 2026-05-06 21:54 | 38.25272 | -104.49144 | 38198 ft | 425 kts | 234° |
| 2026-05-06 21:54 | 38.21468 | -104.54844 | 38204 ft | 426 kts | 234° |
| 2026-05-06 21:55 | 38.17635 | -104.60563 | 38208 ft | 426 kts | 234° |
| 2026-05-06 21:55 | 38.13790 | -104.66284 | 38217 ft | 426 kts | 234° |
| 2026-05-06 21:56 | 38.09929 | -104.72025 | 38232 ft | 426 kts | 234° |
| 2026-05-06 21:56 | 38.06080 | -104.77740 | 38230 ft | 426 kts | 234° |
| 2026-05-06 21:57 | 38.02221 | -104.83454 | 38241 ft | 426 kts | 234° |
| 2026-05-06 21:57 | 37.98358 | -104.89159 | 38234 ft | 426 kts | 234° |
| 2026-05-06 21:58 | 37.94499 | -104.94858 | 38254 ft | 426 kts | 234° |
| 2026-05-06 21:58 | 37.90629 | -105.00563 | 38248 ft | 426 kts | 234° |
| 2026-05-06 21:59 | 37.86750 | -105.06252 | 38241 ft | 426 kts | 234° |
| 2026-05-06 21:59 | 37.82875 | -105.11947 | 38230 ft | 427 kts | 234° |
| 2026-05-06 22:00 | 37.79006 | -105.17637 | 38220 ft | 427 kts | 234° |
| 2026-05-06 22:00 | 37.75154 | -105.23285 | 38209 ft | 427 kts | 234° |
| 2026-05-06 22:01 | 37.71266 | -105.28957 | 38187 ft | 427 kts | 234° |
| 2026-05-06 22:01 | 37.67368 | -105.34630 | 38174 ft | 427 kts | 234° |
| 2026-05-06 22:02 | 37.63473 | -105.40297 | 38149 ft | 427 kts | 234° |
| 2026-05-06 22:02 | 37.59575 | -105.45950 | 38175 ft | 427 kts | 233° |
| 2026-05-06 22:03 | 37.55664 | -105.51624 | 38115 ft | 428 kts | 233° |
| 2026-05-06 22:03 | 37.51749 | -105.57304 | 38104 ft | 429 kts | 233° |
| 2026-05-06 22:04 | 37.47822 | -105.62973 | 38103 ft | 429 kts | 233° |
| 2026-05-06 22:04 | 37.43920 | -105.68596 | 38097 ft | 429 kts | 233° |
| 2026-05-06 22:05 | 37.39990 | -105.74250 | 38100 ft | 429 kts | 233° |
| 2026-05-06 22:05 | 37.36065 | -105.79892 | 38102 ft | 429 kts | 233° |
| 2026-05-06 22:06 | 37.32292 | -105.85664 | 38096 ft | 426 kts | 237° |
| 2026-05-06 22:06 | 37.28828 | -105.91696 | 38088 ft | 425 kts | 239° |
| 2026-05-06 22:07 | 37.25407 | -105.97752 | 38079 ft | 425 kts | 238° |
| 2026-05-06 22:07 | 37.21913 | -106.03739 | 38070 ft | 425 kts | 237° |
| 2026-05-06 22:08 | 37.18379 | -106.09680 | 38048 ft | 425 kts | 237° |
| 2026-05-06 22:08 | 37.14856 | -106.15632 | 38032 ft | 425 kts | 237° |
| 2026-05-06 22:09 | 37.11356 | -106.21543 | 38016 ft | 425 kts | 237° |
| 2026-05-06 22:09 | 37.07832 | -106.27481 | 38014 ft | 425 kts | 237° |
| 2026-05-06 22:10 | 37.04300 | -106.33412 | 38006 ft | 425 kts | 237° |
| 2026-05-06 22:10 | 37.00778 | -106.39340 | 37994 ft | 424 kts | 237° |
| 2026-05-06 22:11 | 36.97254 | -106.45265 | 37987 ft | 424 kts | 237° |
| 2026-05-06 22:11 | 36.93723 | -106.51169 | 37982 ft | 424 kts | 237° |
| 2026-05-06 22:12 | 36.90191 | -106.57071 | 37976 ft | 424 kts | 236° |
| 2026-05-06 22:12 | 36.86664 | -106.62959 | 37974 ft | 423 kts | 236° |
| 2026-05-06 22:13 | 36.83136 | -106.68834 | 37970 ft | 422 kts | 236° |
| 2026-05-06 22:13 | 36.79620 | -106.74697 | 37965 ft | 422 kts | 236° |
| 2026-05-06 22:14 | 36.76101 | -106.80547 | 37956 ft | 421 kts | 236° |
| 2026-05-06 22:14 | 36.72602 | -106.86334 | 37956 ft | 421 kts | 236° |
| 2026-05-06 22:15 | 36.69070 | -106.92164 | 37952 ft | 421 kts | 236° |
| 2026-05-06 22:15 | 36.65549 | -106.97980 | 37950 ft | 420 kts | 236° |
| 2026-05-06 22:16 | 36.62035 | -107.03781 | 37952 ft | 419 kts | 236° |
| 2026-05-06 22:16 | 36.58522 | -107.09570 | 37952 ft | 418 kts | 236° |
| 2026-05-06 22:17 | 36.55013 | -107.15335 | 37949 ft | 417 kts | 236° |
| 2026-05-06 22:17 | 36.51528 | -107.21035 | 37958 ft | 417 kts | 235° |
| 2026-05-06 22:18 | 36.48021 | -107.26776 | 37954 ft | 416 kts | 235° |
| 2026-05-06 22:18 | 36.44526 | -107.32491 | 37963 ft | 415 kts | 235° |
| 2026-05-06 22:19 | 36.41036 | -107.38181 | 37966 ft | 415 kts | 235° |
| 2026-05-06 22:19 | 36.37543 | -107.43881 | 37966 ft | 414 kts | 235° |
| 2026-05-06 22:20 | 36.34053 | -107.49556 | 37977 ft | 413 kts | 235° |
| 2026-05-06 22:20 | 36.30564 | -107.55227 | 37977 ft | 413 kts | 235° |
| 2026-05-06 22:21 | 36.27076 | -107.60877 | 37984 ft | 413 kts | 235° |
| 2026-05-06 22:21 | 36.23587 | -107.66525 | 37984 ft | 412 kts | 235° |
| 2026-05-06 22:22 | 36.20100 | -107.72156 | 37991 ft | 412 kts | 235° |
| 2026-05-06 22:22 | 36.16611 | -107.77778 | 37991 ft | 411 kts | 234° |
| 2026-05-06 22:23 | 36.13125 | -107.83389 | 37989 ft | 411 kts | 234° |
| 2026-05-06 22:23 | 36.09648 | -107.88981 | 37994 ft | 410 kts | 234° |
| 2026-05-06 22:24 | 36.06209 | -107.94505 | 37984 ft | 408 kts | 234° |
| 2026-05-06 22:24 | 36.02745 | -108.00066 | 37980 ft | 408 kts | 234° |
| 2026-05-06 22:25 | 35.99282 | -108.05608 | 37981 ft | 407 kts | 234° |
| 2026-05-06 22:25 | 35.95827 | -108.11120 | 37973 ft | 406 kts | 234° |
| 2026-05-06 22:26 | 35.92366 | -108.16631 | 37964 ft | 405 kts | 234° |
| 2026-05-06 22:26 | 35.88916 | -108.22118 | 37962 ft | 404 kts | 234° |
| 2026-05-06 22:27 | 35.85473 | -108.27593 | 37957 ft | 404 kts | 234° |
| 2026-05-06 22:27 | 35.82034 | -108.33051 | 37948 ft | 403 kts | 234° |
| 2026-05-06 22:28 | 35.79180 | -108.37584 | 37945 ft | 402 kts | 234° |
| 2026-05-06 22:28 | 35.75748 | -108.43027 | 37938 ft | 402 kts | 234° |
| 2026-05-06 22:29 | 35.71686 | -108.49451 | 37950 ft | 418 kts | 234° |
| 2026-05-06 22:29 | 35.68054 | -108.55182 | 37989 ft | 429 kts | 234° |
| 2026-05-06 22:30 | 35.64969 | -108.60026 | 38025 ft | 430 kts | 234° |
| 2026-05-06 22:30 | 35.61275 | -108.65826 | 38067 ft | 430 kts | 234° |
| 2026-05-06 22:31 | 35.57592 | -108.71615 | 38108 ft | 430 kts | 234° |
| 2026-05-06 22:31 | 35.53926 | -108.77376 | 38107 ft | 431 kts | 234° |
| 2026-05-06 22:32 | 35.50224 | -108.83159 | 38112 ft | 431 kts | 234° |
| 2026-05-06 22:32 | 35.46393 | -108.88821 | 38097 ft | 433 kts | 229° |
| 2026-05-06 22:33 | 35.42260 | -108.94182 | 38054 ft | 433 kts | 229° |
| 2026-05-06 22:33 | 35.38123 | -108.99550 | 38005 ft | 433 kts | 229° |
| 2026-05-06 22:34 | 35.33978 | -109.04910 | 37974 ft | 433 kts | 229° |
| 2026-05-06 22:34 | 35.29825 | -109.10268 | 37935 ft | 433 kts | 229° |
| 2026-05-06 22:35 | 35.25675 | -109.15614 | 37921 ft | 434 kts | 229° |
| 2026-05-06 22:35 | 35.21520 | -109.20973 | 37924 ft | 433 kts | 229° |
| 2026-05-06 22:36 | 35.17410 | -109.26257 | 37922 ft | 433 kts | 229° |
| 2026-05-06 22:36 | 35.13242 | -109.31601 | 37922 ft | 433 kts | 229° |
| 2026-05-06 22:37 | 35.09093 | -109.36923 | 37923 ft | 433 kts | 229° |
| 2026-05-06 22:37 | 35.04938 | -109.42248 | 37924 ft | 433 kts | 229° |
| 2026-05-06 22:38 | 35.00768 | -109.47554 | 37928 ft | 433 kts | 229° |
| 2026-05-06 22:38 | 34.96598 | -109.52862 | 37926 ft | 433 kts | 229° |
| 2026-05-06 22:39 | 34.92438 | -109.58163 | 37930 ft | 433 kts | 229° |
| 2026-05-06 22:39 | 34.88276 | -109.63462 | 37931 ft | 433 kts | 229° |
| 2026-05-06 22:40 | 34.84136 | -109.68706 | 37932 ft | 433 kts | 229° |
| 2026-05-06 22:40 | 34.79979 | -109.73992 | 37936 ft | 432 kts | 229° |
| 2026-05-06 22:41 | 34.73744 | -109.81932 | 37942 ft | 432 kts | 229° |
| 2026-05-06 22:42 | 34.70071 | -109.87643 | 37930 ft | 427 kts | 244° |
| 2026-05-06 22:42 | 34.68807 | -109.90891 | 37334 ft | 426 kts | 247° |
| 2026-05-06 22:42 | 34.67584 | -109.94183 | 36521 ft | 429 kts | 247° |
| 2026-05-06 22:42 | 34.66359 | -109.97511 | 35658 ft | 434 kts | 248° |
| 2026-05-06 22:43 | 34.65122 | -110.00874 | 34764 ft | 440 kts | 248° |
| 2026-05-06 22:43 | 34.63861 | -110.04280 | 33831 ft | 446 kts | 248° |
| 2026-05-06 22:43 | 34.62569 | -110.07742 | 32749 ft | 452 kts | 248° |
| 2026-05-06 22:43 | 34.61261 | -110.11235 | 31633 ft | 459 kts | 248° |
| 2026-05-06 22:44 | 34.59929 | -110.14799 | 30481 ft | 466 kts | 248° |
| 2026-05-06 22:44 | 34.58574 | -110.18414 | 29147 ft | 474 kts | 248° |
| 2026-05-06 22:44 | 34.57202 | -110.22071 | 27824 ft | 479 kts | 248° |
| 2026-05-06 22:44 | 34.55815 | -110.25762 | 26514 ft | 483 kts | 248° |
| 2026-05-06 22:45 | 34.54431 | -110.29442 | 25271 ft | 488 kts | 248° |
| 2026-05-06 22:45 | 34.53008 | -110.33213 | 24605 ft | 494 kts | 248° |
| 2026-05-06 22:45 | 34.51574 | -110.37012 | 24285 ft | 497 kts | 248° |
| 2026-05-06 22:45 | 34.50134 | -110.40824 | 24064 ft | 499 kts | 248° |
| 2026-05-06 22:46 | 34.48687 | -110.44654 | 23992 ft | 500 kts | 248° |
| 2026-05-06 22:46 | 34.47240 | -110.48482 | 23994 ft | 501 kts | 248° |
| 2026-05-06 22:46 | 34.45786 | -110.52326 | 23974 ft | 501 kts | 248° |
| 2026-05-06 22:46 | 34.44330 | -110.56169 | 23964 ft | 502 kts | 248° |
| 2026-05-06 22:47 | 34.42875 | -110.60004 | 23965 ft | 502 kts | 248° |
| 2026-05-06 22:47 | 34.41411 | -110.63847 | 23963 ft | 502 kts | 248° |
| 2026-05-06 22:47 | 34.39948 | -110.67683 | 23966 ft | 502 kts | 248° |
| 2026-05-06 22:47 | 34.38490 | -110.71502 | 23962 ft | 491 kts | 247° |
| 2026-05-06 22:48 | 34.37092 | -110.75142 | 23964 ft | 464 kts | 247° |
| 2026-05-06 22:48 | 34.35646 | -110.78528 | 23966 ft | 443 kts | 240° |
| 2026-05-06 22:48 | 34.33878 | -110.81477 | 23947 ft | 426 kts | 231° |
| 2026-05-06 22:48 | 34.31908 | -110.84084 | 23815 ft | 413 kts | 229° |
| 2026-05-06 22:49 | 34.29971 | -110.86601 | 23495 ft | 406 kts | 229° |
| 2026-05-06 22:49 | 34.28051 | -110.89087 | 23040 ft | 402 kts | 228° |
| 2026-05-06 22:49 | 34.26146 | -110.91544 | 22596 ft | 399 kts | 228° |
| 2026-05-06 22:49 | 34.24253 | -110.93982 | 22159 ft | 395 kts | 228° |
| 2026-05-06 22:50 | 34.22407 | -110.96360 | 21742 ft | 392 kts | 228° |
| 2026-05-06 22:50 | 34.20547 | -110.98752 | 21310 ft | 388 kts | 228° |
| 2026-05-06 22:50 | 34.18710 | -111.01123 | 20885 ft | 385 kts | 228° |
| 2026-05-06 22:50 | 34.16891 | -111.03474 | 20486 ft | 382 kts | 228° |
| 2026-05-06 22:51 | 34.15080 | -111.05808 | 20099 ft | 378 kts | 228° |
| 2026-05-06 22:51 | 34.13312 | -111.08087 | 19980 ft | 367 kts | 228° |
| 2026-05-06 22:51 | 34.11589 | -111.10303 | 19842 ft | 356 kts | 228° |
| 2026-05-06 22:51 | 34.09905 | -111.12468 | 19587 ft | 351 kts | 228° |
| 2026-05-06 22:52 | 34.08248 | -111.14602 | 19271 ft | 348 kts | 229° |
| 2026-05-06 22:52 | 34.06594 | -111.16729 | 18939 ft | 346 kts | 229° |
| 2026-05-06 22:52 | 34.04950 | -111.18834 | 18628 ft | 344 kts | 228° |
| 2026-05-06 22:52 | 34.03315 | -111.20927 | 18317 ft | 342 kts | 228° |
| 2026-05-06 22:53 | 34.01692 | -111.23001 | 17943 ft | 339 kts | 229° |
| 2026-05-06 22:53 | 34.00082 | -111.25064 | 17546 ft | 338 kts | 228° |
| 2026-05-06 22:53 | 33.98473 | -111.27124 | 17174 ft | 336 kts | 228° |
| 2026-05-06 22:53 | 33.96875 | -111.29166 | 16813 ft | 334 kts | 228° |
| 2026-05-06 22:54 | 33.95284 | -111.31201 | 16457 ft | 333 kts | 228° |
| 2026-05-06 22:54 | 33.93701 | -111.33230 | 16102 ft | 332 kts | 228° |
| 2026-05-06 22:54 | 33.92123 | -111.35246 | 15766 ft | 330 kts | 228° |
| 2026-05-06 22:54 | 33.90567 | -111.37228 | 15449 ft | 329 kts | 228° |
| 2026-05-06 22:55 | 33.88998 | -111.39225 | 15112 ft | 328 kts | 227° |
| 2026-05-06 22:55 | 33.87320 | -111.41073 | 14800 ft | 327 kts | 217° |
| 2026-05-06 22:55 | 33.85472 | -111.42670 | 14488 ft | 326 kts | 216° |
| 2026-05-06 22:55 | 33.83624 | -111.44258 | 14180 ft | 325 kts | 216° |
| 2026-05-06 22:56 | 33.81790 | -111.45837 | 13892 ft | 323 kts | 216° |
| 2026-05-06 22:56 | 33.79966 | -111.47405 | 13567 ft | 322 kts | 216° |
| 2026-05-06 22:56 | 33.78145 | -111.48967 | 13222 ft | 321 kts | 216° |
| 2026-05-06 22:56 | 33.76335 | -111.50518 | 12880 ft | 319 kts | 216° |
| 2026-05-06 22:57 | 33.74526 | -111.52070 | 12540 ft | 318 kts | 216° |
| 2026-05-06 22:57 | 33.72727 | -111.53617 | 12216 ft | 317 kts | 216° |
| 2026-05-06 22:57 | 33.70945 | -111.55151 | 11893 ft | 315 kts | 216° |
| 2026-05-06 22:57 | 33.69168 | -111.56678 | 11562 ft | 314 kts | 216° |
| 2026-05-06 22:58 | 33.67405 | -111.58189 | 11395 ft | 306 kts | 216° |
| 2026-05-06 22:58 | 33.65708 | -111.59642 | 11271 ft | 294 kts | 216° |
| 2026-05-06 22:58 | 33.64070 | -111.61039 | 11081 ft | 284 kts | 216° |
| 2026-05-06 22:58 | 33.62467 | -111.62397 | 10780 ft | 280 kts | 216° |
| 2026-05-06 22:59 | 33.60906 | -111.63706 | 10652 ft | 268 kts | 216° |
| 2026-05-06 22:59 | 33.59376 | -111.64981 | 10258 ft | 271 kts | 216° |
| 2026-05-06 22:59 | 33.57812 | -111.66280 | 9808 ft | 275 kts | 216° |
| 2026-05-06 22:59 | 33.56237 | -111.67590 | 9344 ft | 277 kts | 216° |
| 2026-05-06 23:00 | 33.54691 | -111.68880 | 9136 ft | 264 kts | 216° |
| 2026-05-06 23:00 | 33.53196 | -111.70137 | 8713 ft | 261 kts | 216° |
| 2026-05-06 23:00 | 33.51743 | -111.71364 | 8297 ft | 257 kts | 216° |
| 2026-05-06 23:00 | 33.50290 | -111.72594 | 7878 ft | 254 kts | 216° |
| 2026-05-06 23:01 | 33.48859 | -111.73806 | 7469 ft | 252 kts | 217° |
| 2026-05-06 23:01 | 33.47431 | -111.75016 | 7048 ft | 250 kts | 217° |
| 2026-05-06 23:01 | 33.46014 | -111.76211 | 6652 ft | 248 kts | 217° |
| 2026-05-06 23:01 | 33.44731 | -111.77502 | 6453 ft | 233 kts | 233° |
| 2026-05-06 23:02 | 33.43822 | -111.79027 | 6328 ft | 217 kts | 242° |
| 2026-05-06 23:02 | 33.43488 | -111.80680 | 6334 ft | 200 kts | 272° |
| 2026-05-06 23:02 | 33.43768 | -111.82260 | 6196 ft | 190 kts | 283° |
| 2026-05-06 23:02 | 33.43982 | -111.83792 | 5913 ft | 185 kts | 274° |
| 2026-05-06 23:03 | 33.44106 | -111.85359 | 5421 ft | 196 kts | 273° |
| 2026-05-06 23:03 | 33.44227 | -111.87023 | 5037 ft | 203 kts | 273° |
| 2026-05-06 23:03 | 33.44173 | -111.88711 | 4762 ft | 203 kts | 262° |
| 2026-05-06 23:03 | 33.44067 | -111.90390 | 4560 ft | 201 kts | 268° |
| 2026-05-06 23:04 | 33.44065 | -111.92059 | 4331 ft | 200 kts | 268° |
| 2026-05-06 23:04 | 33.44071 | -111.93736 | 4075 ft | 202 kts | 269° |
| 2026-05-06 23:04 | 33.44075 | -111.95414 | 3995 ft | 200 kts | 269° |
| 2026-05-06 23:04 | 33.44078 | -111.97089 | 4003 ft | 201 kts | 268° |
| 2026-05-06 23:05 | 33.44081 | -111.98763 | 4006 ft | 201 kts | 268° |
| 2026-05-06 23:05 | 33.44081 | -112.00438 | 4010 ft | 201 kts | 268° |
| 2026-05-06 23:05 | 33.44074 | -112.02105 | 4008 ft | 200 kts | 267° |
| 2026-05-06 23:05 | 33.43985 | -112.03754 | 3997 ft | 199 kts | 252° |
| 2026-05-06 23:06 | 33.43218 | -112.05104 | 4008 ft | 201 kts | 218° |
| 2026-05-06 23:06 | 33.41916 | -112.05621 | 4005 ft | 208 kts | 184° |
| 2026-05-06 23:06 | 33.40516 | -112.05088 | 4014 ft | 218 kts | 148° |
| 2026-05-06 23:06 | 33.39582 | -112.03647 | 4011 ft | 226 kts | 114° |
| 2026-05-06 23:07 | 33.39156 | -112.01818 | 4012 ft | 229 kts | 105° |
| 2026-05-06 23:07 | 33.38822 | -111.99965 | 4010 ft | 229 kts | 104° |
| 2026-05-06 23:07 | 33.38595 | -111.98066 | 4014 ft | 232 kts | 96° |
| 2026-05-06 23:07 | 33.38494 | -111.96137 | 4006 ft | 232 kts | 95° |
| 2026-05-06 23:08 | 33.38414 | -111.94222 | 4009 ft | 231 kts | 95° |
| 2026-05-06 23:08 | 33.38342 | -111.92296 | 4012 ft | 232 kts | 94° |
| 2026-05-06 23:08 | 33.38263 | -111.90371 | 4006 ft | 230 kts | 94° |
| 2026-05-06 23:08 | 33.38185 | -111.88447 | 4004 ft | 231 kts | 94° |
| 2026-05-06 23:09 | 33.38105 | -111.86527 | 4032 ft | 232 kts | 94° |
| 2026-05-06 23:09 | 33.38028 | -111.84598 | 4038 ft | 231 kts | 94° |
| 2026-05-06 23:09 | 33.37954 | -111.82683 | 4030 ft | 230 kts | 94° |
| 2026-05-06 23:09 | 33.37870 | -111.80775 | 4026 ft | 229 kts | 94° |
| 2026-05-06 23:10 | 33.37775 | -111.78906 | 3966 ft | 226 kts | 94° |
| 2026-05-06 23:10 | 33.37644 | -111.77040 | 4013 ft | 225 kts | 94° |
| 2026-05-06 23:10 | 33.37555 | -111.75177 | 4016 ft | 224 kts | 84° |
| 2026-05-06 23:10 | 33.38117 | -111.73477 | 4025 ft | 221 kts | 48° |
| 2026-05-06 23:11 | 33.39369 | -111.72467 | 4030 ft | 218 kts | 13° |
| 2026-05-06 23:11 | 33.40850 | -111.72488 | 4031 ft | 214 kts | 342° |
| 2026-05-06 23:11 | 33.42233 | -111.73121 | 4024 ft | 213 kts | 335° |
| 2026-05-06 23:11 | 33.43593 | -111.73830 | 4027 ft | 213 kts | 334° |
| 2026-05-06 23:12 | 33.44853 | -111.74722 | 4022 ft | 211 kts | 310° |
| 2026-05-06 23:12 | 33.45350 | -111.76310 | 4029 ft | 209 kts | 266° |
| 2026-05-06 23:12 | 33.44819 | -111.77916 | 4033 ft | 211 kts | 238° |
| 2026-05-06 23:12 | 33.44221 | -111.79443 | 4013 ft | 197 kts | 259° |
| 2026-05-06 23:13 | 33.44079 | -111.81041 | 4077 ft | 190 kts | 266° |
| 2026-05-06 23:13 | 33.44054 | -111.82601 | 3903 ft | 184 kts | 268° |
| 2026-05-06 23:13 | 33.44052 | -111.84097 | 3658 ft | 174 kts | 268° |
| 2026-05-06 23:13 | 33.44055 | -111.85498 | 3458 ft | 164 kts | 267° |
| 2026-05-06 23:14 | 33.44058 | -111.86830 | 3255 ft | 156 kts | 269° |
| 2026-05-06 23:14 | 33.44061 | -111.88083 | 3042 ft | 147 kts | 269° |
| 2026-05-06 23:14 | 33.44063 | -111.89255 | 2864 ft | 137 kts | 268° |
| 2026-05-06 23:14 | 33.44066 | -111.90399 | 2681 ft | 136 kts | 269° |
| 2026-05-06 23:15 | 33.44068 | -111.91507 | 2509 ft | 135 kts | 269° |
| 2026-05-06 23:15 | 33.44070 | -111.92636 | 2335 ft | 136 kts | 267° |
| 2026-05-06 23:15 | 33.44072 | -111.93765 | 2122 ft | 135 kts | 268° |
| 2026-05-06 23:15 | 33.44075 | -111.94914 | 1921 ft | 140 kts | 271° |
| 2026-05-06 23:16 | 33.44077 | -111.96073 | 1718 ft | 139 kts | 268° |
| 2026-05-06 23:16 | 33.44078 | -111.97232 | 1515 ft | 141 kts | 271° |
| 2026-05-06 23:16 | 33.44084 | -111.98409 | 1385 ft | 140 kts | 269° |
| 2026-05-06 23:16 | 33.44098 | -111.99552 | 1173 ft | 134 kts | 265° |
| 2026-05-06 23:17 | 33.44093 | -112.00573 | 1131 ft | 102 kts | 268° |
| 2026-05-06 23:17 | 33.44070 | -112.01045 | 1132 ft | 23 kts | 239° |
| 2026-05-06 23:17 | 33.44020 | -112.01088 | 1134 ft | 0 kts | 185° |
| 2026-05-06 23:17 | 33.44007 | -112.01088 | 1133 ft | 4 kts | 178° |
| 2026-05-06 23:18 | 33.43978 | -112.01061 | 1131 ft | 7 kts | 108° |
| 2026-05-06 23:18 | 33.43975 | -112.00990 | 1131 ft | 10 kts | 90° |
| 2026-05-06 23:18 | 33.43975 | -112.00897 | 1131 ft | 13 kts | 90° |
| 2026-05-06 23:18 | 33.43974 | -112.00784 | 1131 ft | 15 kts | 90° |
| 2026-05-06 23:19 | 33.43975 | -112.00655 | 1133 ft | 16 kts | 89° |
| 2026-05-06 23:19 | 33.43972 | -112.00523 | 1131 ft | 14 kts | 103° |
| 2026-05-06 23:19 | 33.43913 | -112.00434 | 1132 ft | 14 kts | 119° |
| 2026-05-06 23:19 | 33.43905 | -112.00308 | 1131 ft | 16 kts | 90° |
| 2026-05-06 23:20 | 33.43905 | -112.00165 | 1131 ft | 18 kts | 89° |
| 2026-05-06 23:20 | 33.43905 | -112.00112 | 1131 ft | 0 kts | 91° |
| 2026-05-06 23:21 | 33.43904 | -112.00077 | 1131 ft | 13 kts | 90° |
| 2026-05-06 23:21 | 33.43905 | -111.99955 | 1131 ft | 16 kts | 90° |
| 2026-05-06 23:21 | 33.43898 | -111.99849 | 1132 ft | 4 kts | 113° |
| 2026-05-06 23:22 | 33.43870 | -111.99830 | 1133 ft | 6 kts | 172° |
| 2026-05-06 23:22 | 33.43816 | -111.99825 | 1134 ft | 9 kts | 177° |
| 2026-05-06 23:22 | 33.43757 | -111.99795 | 1131 ft | 9 kts | 120° |
| 2026-05-06 23:22 | 33.43752 | -111.99729 | 1131 ft | 0 kts | 89° |